sensor_id;sensor_type;location;lat;lon;timestamp;P1;durP1;ratioP1;P2;durP2;ratioP2
16430;SDS011;8325;49.284;7.238;2023-08-24T04:02:48;6.80;;;5.90;;
16430;SDS011;8325;49.284;7.238;2023-08-24T04:07:06;6.00;;;5.40;;
16430;SDS011;8325;49.284;7.238;2023-08-24T04:11:18;5.97;;;5.35;;
16430;SDS011;8325;49.284;7.238;2023-08-24T04:15:30;7.97;;;5.25;;
16430;SDS011;8325;49.284;7.238;2023-08-24T04:19:42;6.43;;;5.18;;
16430;SDS011;8325;49.284;7.238;2023-08-24T04:23:54;8.18;;;5.80;;
16430;SDS011;8325;49.284;7.238;2023-08-24T04:28:05;6.07;;;5.38;;
16430;SDS011;8325;49.284;7.238;2023-08-24T04:32:17;8.48;;;5.65;;
16430;SDS011;8325;49.284;7.238;2023-08-24T04:36:28;6.68;;;5.63;;
16430;SDS011;8325;49.284;7.238;2023-08-24T04:44:59;7.60;;;5.07;;
16430;SDS011;8325;49.284;7.238;2023-08-24T04:49:12;5.90;;;5.30;;
16430;SDS011;8325;49.284;7.238;2023-08-24T04:53:23;5.85;;;5.25;;
16430;SDS011;8325;49.284;7.238;2023-08-24T04:57:35;5.82;;;5.22;;
16430;SDS011;8325;49.284;7.238;2023-08-24T05:01:47;7.47;;;4.78;;
16430;SDS011;8325;49.284;7.238;2023-08-24T05:05:58;6.82;;;5.03;;
16430;SDS011;8325;49.284;7.238;2023-08-24T05:10:10;5.72;;;4.95;;
16430;SDS011;8325;49.284;7.238;2023-08-24T05:14:22;4.80;;;4.30;;
16430;SDS011;8325;49.284;7.238;2023-08-24T05:18:34;4.80;;;4.10;;
16430;SDS011;8325;49.284;7.238;2023-08-24T05:22:47;5.95;;;4.47;;
16430;SDS011;8325;49.284;7.238;2023-08-24T05:26:59;8.60;;;4.65;;
16430;SDS011;8325;49.284;7.238;2023-08-24T05:31:11;6.90;;;4.80;;
16430;SDS011;8325;49.284;7.238;2023-08-24T05:35:22;4.72;;;4.32;;
16430;SDS011;8325;49.284;7.238;2023-08-24T05:39:34;8.77;;;4.30;;
16430;SDS011;8325;49.284;7.238;2023-08-24T05:43:46;6.03;;;4.53;;
16430;SDS011;8325;49.284;7.238;2023-08-24T05:47:58;5.45;;;4.88;;
16430;SDS011;8325;49.284;7.238;2023-08-24T05:52:09;5.60;;;4.57;;
16430;SDS011;8325;49.284;7.238;2023-08-24T05:56:21;4.97;;;4.38;;
16430;SDS011;8325;49.284;7.238;2023-08-24T06:00:33;5.35;;;4.47;;
16430;SDS011;8325;49.284;7.238;2023-08-24T06:04:46;5.38;;;4.55;;
16430;SDS011;8325;49.284;7.238;2023-08-24T06:08:57;4.57;;;4.18;;
16430;SDS011;8325;49.284;7.238;2023-08-24T06:13:09;6.05;;;4.50;;
16430;SDS011;8325;49.284;7.238;2023-08-24T06:17:20;6.72;;;4.57;;
16430;SDS011;8325;49.284;7.238;2023-08-24T06:21:32;5.28;;;4.13;;
16430;SDS011;8325;49.284;7.238;2023-08-24T06:25:44;5.13;;;4.07;;
16430;SDS011;8325;49.284;7.238;2023-08-24T06:29:56;7.63;;;4.38;;
16430;SDS011;8325;49.284;7.238;2023-08-24T06:34:08;6.65;;;4.45;;
16430;SDS011;8325;49.284;7.238;2023-08-24T06:38:20;6.82;;;4.30;;
16430;SDS011;8325;49.284;7.238;2023-08-24T06:42:31;5.70;;;4.10;;
16430;SDS011;8325;49.284;7.238;2023-08-24T06:46:43;4.90;;;4.18;;
16430;SDS011;8325;49.284;7.238;2023-08-24T06:50:54;8.32;;;4.88;;
16430;SDS011;8325;49.284;7.238;2023-08-24T06:55:07;4.68;;;4.28;;
16430;SDS011;8325;49.284;7.238;2023-08-24T06:59:19;4.25;;;3.85;;
16430;SDS011;8325;49.284;7.238;2023-08-24T07:03:31;4.45;;;4.05;;
16430;SDS011;8325;49.284;7.238;2023-08-24T07:07:44;4.55;;;4.10;;
16430;SDS011;8325;49.284;7.238;2023-08-24T07:11:57;4.47;;;3.92;;
16430;SDS011;8325;49.284;7.238;2023-08-24T07:16:08;9.40;;;4.28;;
16430;SDS011;8325;49.284;7.238;2023-08-24T07:20:20;4.82;;;4.00;;
16430;SDS011;8325;49.284;7.238;2023-08-24T07:24:31;4.65;;;4.15;;
16430;SDS011;8325;49.284;7.238;2023-08-24T07:28:55;6.65;;;4.18;;
16430;SDS011;8325;49.284;7.238;2023-08-24T07:33:07;4.30;;;3.90;;
16430;SDS011;8325;49.284;7.238;2023-08-24T07:37:19;4.72;;;4.22;;
16430;SDS011;8325;49.284;7.238;2023-08-24T07:41:31;5.95;;;4.07;;
16430;SDS011;8325;49.284;7.238;2023-08-24T07:45:42;5.45;;;4.53;;
16430;SDS011;8325;49.284;7.238;2023-08-24T07:49:54;5.30;;;4.50;;
16430;SDS011;8325;49.284;7.238;2023-08-24T07:54:06;6.43;;;4.40;;
16430;SDS011;8325;49.284;7.238;2023-08-24T07:58:18;5.72;;;4.30;;
16430;SDS011;8325;49.284;7.238;2023-08-24T08:02:30;4.45;;;4.05;;
16430;SDS011;8325;49.284;7.238;2023-08-24T08:06:43;5.35;;;4.78;;
16430;SDS011;8325;49.284;7.238;2023-08-24T08:10:58;4.50;;;4.10;;
16430;SDS011;8325;49.284;7.238;2023-08-24T08:15:11;6.20;;;4.60;;
16430;SDS011;8325;49.284;7.238;2023-08-24T08:19:23;4.68;;;4.25;;
16430;SDS011;8325;49.284;7.238;2023-08-24T08:23:36;8.00;;;4.20;;
16430;SDS011;8325;49.284;7.238;2023-08-24T08:27:48;7.70;;;4.15;;
16430;SDS011;8325;49.284;7.238;2023-08-24T08:32:01;4.47;;;4.07;;
16430;SDS011;8325;49.284;7.238;2023-08-24T08:36:12;5.10;;;4.35;;
16430;SDS011;8325;49.284;7.238;2023-08-24T08:40:24;5.20;;;4.30;;
16430;SDS011;8325;49.284;7.238;2023-08-24T08:44:41;5.03;;;4.40;;
16430;SDS011;8325;49.284;7.238;2023-08-24T08:48:54;6.13;;;4.75;;
16430;SDS011;8325;49.284;7.238;2023-08-24T08:53:06;6.38;;;4.28;;
16430;SDS011;8325;49.284;7.238;2023-08-24T08:57:17;11.05;;;4.70;;
16430;SDS011;8325;49.284;7.238;2023-08-24T09:01:32;4.78;;;4.30;;
16430;SDS011;8325;49.284;7.238;2023-08-24T09:05:43;5.50;;;4.43;;
16430;SDS011;8325;49.284;7.238;2023-08-24T09:09:59;4.85;;;4.25;;
16430;SDS011;8325;49.284;7.238;2023-08-24T09:14:10;5.88;;;4.45;;
16430;SDS011;8325;49.284;7.238;2023-08-24T09:18:22;4.95;;;4.28;;
16430;SDS011;8325;49.284;7.238;2023-08-24T09:22:44;7.10;;;4.28;;
16430;SDS011;8325;49.284;7.238;2023-08-24T09:26:56;6.47;;;4.30;;
16430;SDS011;8325;49.284;7.238;2023-08-24T09:31:08;5.93;;;4.60;;
16430;SDS011;8325;49.284;7.238;2023-08-24T09:35:20;4.68;;;4.25;;
16430;SDS011;8325;49.284;7.238;2023-08-24T09:39:32;5.40;;;4.28;;
16430;SDS011;8325;49.284;7.238;2023-08-24T09:43:43;4.85;;;4.40;;
16430;SDS011;8325;49.284;7.238;2023-08-24T09:47:55;4.60;;;4.20;;
16430;SDS011;8325;49.284;7.238;2023-08-24T09:52:07;5.63;;;4.45;;
16430;SDS011;8325;49.284;7.238;2023-08-24T09:56:20;4.85;;;4.38;;
16430;SDS011;8325;49.284;7.238;2023-08-24T10:00:34;5.10;;;4.60;;
16430;SDS011;8325;49.284;7.238;2023-08-24T10:04:46;4.95;;;4.45;;
16430;SDS011;8325;49.284;7.238;2023-08-24T10:09:02;5.47;;;4.30;;
16430;SDS011;8325;49.284;7.238;2023-08-24T10:13:20;9.55;;;5.75;;
16430;SDS011;8325;49.284;7.238;2023-08-24T10:17:49;4.43;;;4.03;;
16430;SDS011;8325;49.284;7.238;2023-08-24T10:22:02;5.63;;;4.45;;
16430;SDS011;8325;49.284;7.238;2023-08-24T10:26:14;5.28;;;4.15;;
16430;SDS011;8325;49.284;7.238;2023-08-24T10:30:28;4.80;;;4.30;;
16430;SDS011;8325;49.284;7.238;2023-08-24T10:34:42;5.15;;;4.65;;
16430;SDS011;8325;49.284;7.238;2023-08-24T10:38:55;5.88;;;5.10;;
16430;SDS011;8325;49.284;7.238;2023-08-24T10:43:10;6.07;;;4.30;;
16430;SDS011;8325;49.284;7.238;2023-08-24T10:47:22;4.47;;;4.07;;
16430;SDS011;8325;49.284;7.238;2023-08-24T10:51:42;5.95;;;4.57;;
16430;SDS011;8325;49.284;7.238;2023-08-24T10:56:09;7.32;;;4.93;;
16430;SDS011;8325;49.284;7.238;2023-08-24T11:00:23;4.85;;;4.43;;
16430;SDS011;8325;49.284;7.238;2023-08-24T11:04:37;4.75;;;4.35;;
16430;SDS011;8325;49.284;7.238;2023-08-24T11:08:49;4.97;;;4.20;;
16430;SDS011;8325;49.284;7.238;2023-08-24T11:13:16;5.15;;;4.65;;
16430;SDS011;8325;49.284;7.238;2023-08-24T11:17:30;4.93;;;4.53;;
16430;SDS011;8325;49.284;7.238;2023-08-24T11:21:45;5.60;;;4.40;;
16430;SDS011;8325;49.284;7.238;2023-08-24T11:25:58;5.68;;;4.25;;
16430;SDS011;8325;49.284;7.238;2023-08-24T11:30:11;4.75;;;4.35;;
16430;SDS011;8325;49.284;7.238;2023-08-24T11:34:22;4.80;;;4.30;;
16430;SDS011;8325;49.284;7.238;2023-08-24T11:42:53;5.88;;;4.65;;
16430;SDS011;8325;49.284;7.238;2023-08-24T11:47:06;5.13;;;4.72;;
16430;SDS011;8325;49.284;7.238;2023-08-24T11:51:18;5.30;;;4.80;;
16430;SDS011;8325;49.284;7.238;2023-08-24T11:55:43;5.47;;;4.93;;
16430;SDS011;8325;49.284;7.238;2023-08-24T12:00:15;5.32;;;4.82;;
16430;SDS011;8325;49.284;7.238;2023-08-24T12:04:28;5.45;;;4.90;;
16430;SDS011;8325;49.284;7.238;2023-08-24T12:08:46;5.30;;;4.90;;
16430;SDS011;8325;49.284;7.238;2023-08-24T12:13:05;5.68;;;5.15;;
16430;SDS011;8325;49.284;7.238;2023-08-24T12:17:19;7.38;;;5.00;;
16430;SDS011;8325;49.284;7.238;2023-08-24T12:21:31;13.05;;;5.35;;
16430;SDS011;8325;49.284;7.238;2023-08-24T12:25:43;5.65;;;5.15;;
16430;SDS011;8325;49.284;7.238;2023-08-24T12:29:59;5.55;;;4.97;;
16430;SDS011;8325;49.284;7.238;2023-08-24T12:34:13;5.78;;;5.28;;
16430;SDS011;8325;49.284;7.238;2023-08-24T12:38:26;5.60;;;5.10;;
16430;SDS011;8325;49.284;7.238;2023-08-24T12:42:38;6.05;;;5.15;;
16430;SDS011;8325;49.284;7.238;2023-08-24T12:46:50;5.65;;;5.15;;
16430;SDS011;8325;49.284;7.238;2023-08-24T12:51:01;5.47;;;4.95;;
16430;SDS011;8325;49.284;7.238;2023-08-24T12:55:13;5.55;;;5.05;;
16430;SDS011;8325;49.284;7.238;2023-08-24T12:59:25;5.78;;;5.18;;
16430;SDS011;8325;49.284;7.238;2023-08-24T13:03:37;5.82;;;5.22;;
16430;SDS011;8325;49.284;7.238;2023-08-24T13:07:50;5.65;;;5.10;;
16430;SDS011;8325;49.284;7.238;2023-08-24T13:12:03;5.72;;;5.22;;
16430;SDS011;8325;49.284;7.238;2023-08-24T13:16:15;5.95;;;5.32;;
16430;SDS011;8325;49.284;7.238;2023-08-24T13:20:27;5.97;;;5.47;;
16430;SDS011;8325;49.284;7.238;2023-08-24T13:24:38;6.00;;;5.25;;
16430;SDS011;8325;49.284;7.238;2023-08-24T13:28:51;5.55;;;5.03;;
16430;SDS011;8325;49.284;7.238;2023-08-24T13:33:03;5.82;;;5.18;;
16430;SDS011;8325;49.284;7.238;2023-08-24T13:37:15;5.85;;;5.25;;
16430;SDS011;8325;49.284;7.238;2023-08-24T13:41:26;5.93;;;5.30;;
16430;SDS011;8325;49.284;7.238;2023-08-24T13:45:38;7.88;;;5.53;;
16430;SDS011;8325;49.284;7.238;2023-08-24T13:49:49;5.85;;;5.35;;
16430;SDS011;8325;49.284;7.238;2023-08-24T13:54:01;8.05;;;6.47;;
16430;SDS011;8325;49.284;7.238;2023-08-24T13:58:13;8.10;;;5.70;;
16430;SDS011;8325;49.284;7.238;2023-08-24T14:02:24;6.57;;;5.97;;
16430;SDS011;8325;49.284;7.238;2023-08-24T14:06:36;6.50;;;5.63;;
16430;SDS011;8325;49.284;7.238;2023-08-24T14:10:48;7.80;;;5.50;;
16430;SDS011;8325;49.284;7.238;2023-08-24T14:15:00;6.88;;;6.03;;
16430;SDS011;8325;49.284;7.238;2023-08-24T14:19:12;7.03;;;6.32;;
16430;SDS011;8325;49.284;7.238;2023-08-24T14:23:23;7.43;;;5.60;;
16430;SDS011;8325;49.284;7.238;2023-08-24T14:27:35;10.98;;;6.10;;
16430;SDS011;8325;49.284;7.238;2023-08-24T14:31:49;9.43;;;6.15;;
16430;SDS011;8325;49.284;7.238;2023-08-24T14:36:00;9.27;;;6.20;;
16430;SDS011;8325;49.284;7.238;2023-08-24T14:40:12;8.02;;;6.55;;
16430;SDS011;8325;49.284;7.238;2023-08-24T14:44:23;7.85;;;6.70;;
16430;SDS011;8325;49.284;7.238;2023-08-24T14:48:35;7.50;;;6.80;;
16430;SDS011;8325;49.284;7.238;2023-08-24T14:52:47;9.35;;;6.63;;
16430;SDS011;8325;49.284;7.238;2023-08-24T14:56:58;9.27;;;7.03;;
16430;SDS011;8325;49.284;7.238;2023-08-24T15:01:11;8.55;;;7.07;;
16430;SDS011;8325;49.284;7.238;2023-08-24T15:05:23;8.35;;;7.18;;
16430;SDS011;8325;49.284;7.238;2023-08-24T15:09:34;8.45;;;6.82;;
16430;SDS011;8325;49.284;7.238;2023-08-24T15:13:46;9.52;;;7.20;;
16430;SDS011;8325;49.284;7.238;2023-08-24T15:17:58;10.32;;;6.95;;
16430;SDS011;8325;49.284;7.238;2023-08-24T15:22:10;6.95;;;6.18;;
16430;SDS011;8325;49.284;7.238;2023-08-24T15:26:22;6.85;;;6.25;;
16430;SDS011;8325;49.284;7.238;2023-08-24T15:30:33;6.75;;;6.05;;
16430;SDS011;8325;49.284;7.238;2023-08-24T15:34:45;6.60;;;5.60;;
16430;SDS011;8325;49.284;7.238;2023-08-24T15:38:57;6.75;;;6.05;;
16430;SDS011;8325;49.284;7.238;2023-08-24T15:43:09;6.97;;;5.90;;
16430;SDS011;8325;49.284;7.238;2023-08-24T15:47:20;6.70;;;5.78;;
16430;SDS011;8325;49.284;7.238;2023-08-24T15:51:32;6.38;;;5.72;;
16430;SDS011;8325;49.284;7.238;2023-08-24T15:55:43;9.00;;;5.82;;
16430;SDS011;8325;49.284;7.238;2023-08-24T15:59:55;5.82;;;5.20;;
16430;SDS011;8325;49.284;7.238;2023-08-24T16:04:07;7.13;;;5.40;;
16430;SDS011;8325;49.284;7.238;2023-08-24T16:08:18;5.82;;;5.22;;
16430;SDS011;8325;49.284;7.238;2023-08-24T16:12:30;7.85;;;5.80;;
16430;SDS011;8325;49.284;7.238;2023-08-24T16:16:41;8.52;;;5.95;;
16430;SDS011;8325;49.284;7.238;2023-08-24T16:20:53;6.32;;;5.72;;
16430;SDS011;8325;49.284;7.238;2023-08-24T16:25:05;8.75;;;5.90;;
16430;SDS011;8325;49.284;7.238;2023-08-24T16:29:17;8.38;;;5.53;;
16430;SDS011;8325;49.284;7.238;2023-08-24T16:33:29;7.63;;;5.45;;
16430;SDS011;8325;49.284;7.238;2023-08-24T16:37:40;6.30;;;5.10;;
16430;SDS011;8325;49.284;7.238;2023-08-24T16:41:52;11.30;;;4.78;;
16430;SDS011;8325;49.284;7.238;2023-08-24T16:46:04;7.82;;;4.75;;
16430;SDS011;8325;49.284;7.238;2023-08-24T16:50:15;11.07;;;5.20;;
16430;SDS011;8325;49.284;7.238;2023-08-24T16:54:27;5.18;;;4.28;;
16430;SDS011;8325;49.284;7.238;2023-08-24T16:58:38;6.75;;;4.70;;
16430;SDS011;8325;49.284;7.238;2023-08-24T17:02:50;7.32;;;4.78;;
16430;SDS011;8325;49.284;7.238;2023-08-24T17:07:02;5.82;;;4.55;;
16430;SDS011;8325;49.284;7.238;2023-08-24T17:11:13;7.20;;;4.35;;
16430;SDS011;8325;49.284;7.238;2023-08-24T17:15:25;6.40;;;4.28;;
16430;SDS011;8325;49.284;7.238;2023-08-24T17:19:37;7.20;;;4.60;;
16430;SDS011;8325;49.284;7.238;2023-08-24T17:23:49;9.00;;;5.70;;
16430;SDS011;8325;49.284;7.238;2023-08-24T17:28:00;7.22;;;5.25;;
16430;SDS011;8325;49.284;7.238;2023-08-24T17:32:12;7.78;;;5.07;;
16430;SDS011;8325;49.284;7.238;2023-08-24T17:36:23;9.48;;;5.30;;
16430;SDS011;8325;49.284;7.238;2023-08-24T17:40:35;5.97;;;4.90;;
16430;SDS011;8325;49.284;7.238;2023-08-24T17:44:46;8.73;;;5.50;;
16430;SDS011;8325;49.284;7.238;2023-08-24T17:48:58;7.40;;;5.47;;
16430;SDS011;8325;49.284;7.238;2023-08-24T17:53:09;7.03;;;4.97;;
16430;SDS011;8325;49.284;7.238;2023-08-24T17:57:22;6.13;;;5.28;;
16430;SDS011;8325;49.284;7.238;2023-08-24T18:01:34;8.45;;;5.28;;
16430;SDS011;8325;49.284;7.238;2023-08-24T18:05:45;8.10;;;6.00;;
16430;SDS011;8325;49.284;7.238;2023-08-24T18:09:57;6.38;;;5.35;;
16430;SDS011;8325;49.284;7.238;2023-08-24T18:14:09;7.65;;;5.60;;
16430;SDS011;8325;49.284;7.238;2023-08-24T18:18:20;7.57;;;6.40;;
16430;SDS011;8325;49.284;7.238;2023-08-24T18:22:32;8.98;;;6.18;;
16430;SDS011;8325;49.284;7.238;2023-08-24T18:26:44;11.10;;;6.13;;
16430;SDS011;8325;49.284;7.238;2023-08-24T18:30:56;7.60;;;6.63;;
16430;SDS011;8325;49.284;7.238;2023-08-24T18:35:08;8.52;;;5.93;;
16430;SDS011;8325;49.284;7.238;2023-08-24T18:39:19;7.60;;;6.78;;
16430;SDS011;8325;49.284;7.238;2023-08-24T18:43:31;7.93;;;6.35;;
16430;SDS011;8325;49.284;7.238;2023-08-24T18:47:43;6.90;;;6.20;;
16430;SDS011;8325;49.284;7.238;2023-08-24T18:51:54;10.07;;;6.60;;
16430;SDS011;8325;49.284;7.238;2023-08-24T18:56:06;7.25;;;6.35;;
16430;SDS011;8325;49.284;7.238;2023-08-24T19:00:18;6.88;;;6.15;;
16430;SDS011;8325;49.284;7.238;2023-08-24T19:04:29;7.45;;;6.72;;
16430;SDS011;8325;49.284;7.238;2023-08-24T19:08:41;8.77;;;6.57;;
16430;SDS011;8325;49.284;7.238;2023-08-24T19:12:52;7.47;;;6.47;;
16430;SDS011;8325;49.284;7.238;2023-08-24T19:17:05;10.68;;;6.32;;
16430;SDS011;8325;49.284;7.238;2023-08-24T19:21:17;8.55;;;6.60;;
16430;SDS011;8325;49.284;7.238;2023-08-24T19:25:28;7.45;;;6.60;;
16430;SDS011;8325;49.284;7.238;2023-08-24T19:29:40;7.05;;;6.32;;
16430;SDS011;8325;49.284;7.238;2023-08-24T19:33:54;7.13;;;6.43;;
16430;SDS011;8325;49.284;7.238;2023-08-24T19:38:06;8.88;;;6.57;;
16430;SDS011;8325;49.284;7.238;2023-08-24T19:42:18;9.13;;;6.78;;
16430;SDS011;8325;49.284;7.238;2023-08-24T19:46:29;7.90;;;7.00;;
16430;SDS011;8325;49.284;7.238;2023-08-24T19:50:42;8.43;;;7.00;;
16430;SDS011;8325;49.284;7.238;2023-08-24T19:54:54;8.00;;;7.15;;
16430;SDS011;8325;49.284;7.238;2023-08-24T19:59:06;7.93;;;7.13;;
16430;SDS011;8325;49.284;7.238;2023-08-24T20:03:17;8.35;;;7.00;;
16430;SDS011;8325;49.284;7.238;2023-08-24T20:07:29;9.50;;;7.40;;
16430;SDS011;8325;49.284;7.238;2023-08-24T20:11:41;8.50;;;7.18;;
16430;SDS011;8325;49.284;7.238;2023-08-24T20:15:53;8.27;;;7.47;;
16430;SDS011;8325;49.284;7.238;2023-08-24T20:20:04;8.85;;;7.70;;
16430;SDS011;8325;49.284;7.238;2023-08-24T20:24:22;10.32;;;7.32;;
16430;SDS011;8325;49.284;7.238;2023-08-24T20:28:33;8.90;;;8.00;;
16430;SDS011;8325;49.284;7.238;2023-08-24T20:32:47;12.05;;;7.40;;
16430;SDS011;8325;49.284;7.238;2023-08-24T20:36:59;9.80;;;7.50;;
16430;SDS011;8325;49.284;7.238;2023-08-24T20:41:11;8.00;;;6.75;;
16430;SDS011;8325;49.284;7.238;2023-08-24T20:45:22;8.02;;;6.90;;
16430;SDS011;8325;49.284;7.238;2023-08-24T20:49:34;9.55;;;7.72;;
16430;SDS011;8325;49.284;7.238;2023-08-24T20:53:46;9.88;;;7.53;;
16430;SDS011;8325;49.284;7.238;2023-08-24T20:57:57;8.20;;;7.05;;
16430;SDS011;8325;49.284;7.238;2023-08-24T21:02:09;9.30;;;7.78;;
16430;SDS011;8325;49.284;7.238;2023-08-24T21:06:21;8.88;;;7.10;;
16430;SDS011;8325;49.284;7.238;2023-08-24T21:10:33;9.20;;;7.88;;
16430;SDS011;8325;49.284;7.238;2023-08-24T21:14:44;12.38;;;7.72;;
16430;SDS011;8325;49.284;7.238;2023-08-24T21:18:56;9.50;;;7.43;;
16430;SDS011;8325;49.284;7.238;2023-08-24T21:23:08;9.35;;;7.10;;
16430;SDS011;8325;49.284;7.238;2023-08-24T21:27:20;10.73;;;7.40;;
